Time;durP1;ratioP1;P1;durP2;ratioP2;P2;SDS_P1;SDS_P2;PMS_P1;PMS_P2;Temp;Humidity;BMP_temperature;BMP_pressure;BME280_temperature;BME280_humidity;BME280_pressure;Samples;Min_cycle;Max_cycle;Signal;HPM_P1;HPM_P2
2021/05/01 00:00:19;;;;;;;8.23;4.15;;;7.40;86.00;;;;;;4949312;29;20119;-71
2021/05/01 00:02:45;;;;;;;6.82;3.40;;;7.50;86.80;;;;;;4961726;29;20101;-71
2021/05/01 00:05:11;;;;;;;7.03;3.28;;;7.50;87.00;;;;;;4965533;28;20380;-70
2021/05/01 00:07:36;;;;;;;7.93;3.35;;;7.60;87.10;;;;;;4965928;28;20321;-71
2021/05/01 00:10:03;;;;;;;6.25;3.17;;;7.70;87.10;;;;;;4950757;29;20014;-70
2021/05/01 00:12:29;;;;;;;6.32;3.55;;;7.70;87.30;;;;;;4930601;29;20086;-71
2021/05/01 00:14:55;;;;;;;6.90;3.20;;;7.70;87.60;;;;;;4941579;28;20031;-70
2021/05/01 00:17:20;;;;;;;7.65;3.53;;;7.70;88.10;;;;;;4965574;29;20062;-71
2021/05/01 00:19:46;;;;;;;7.68;3.72;;;7.70;88.30;;;;;;4963593;29;20328;-70
2021/05/01 00:22:11;;;;;;;5.43;2.83;;;7.70;88.70;;;;;;4966452;29;20034;-70
2021/05/01 00:24:37;;;;;;;11.98;3.70;;;7.70;88.50;;;;;;4957405;29;20023;-70
2021/05/01 00:27:03;;;;;;;6.60;3.22;;;7.70;88.20;;;;;;4951504;29;20026;-71
2021/05/01 00:29:28;;;;;;;6.28;3.00;;;7.70;88.30;;;;;;4956354;29;20022;-70
2021/05/01 00:31:54;;;;;;;7.22;3.30;;;7.70;88.40;;;;;;4948741;29;20062;-70
2021/05/01 00:34:20;;;;;;;6.40;3.33;;;7.70;88.40;;;;;;4955946;29;20241;-70
2021/05/01 00:36:45;;;;;;;6.65;3.28;;;7.70;88.70;;;;;;4954060;29;20090;-71
2021/05/01 00:39:11;;;;;;;8.50;3.40;;;7.80;88.40;;;;;;4952418;29;20007;-71
2021/05/01 00:41:36;;;;;;;8.30;4.05;;;7.70;88.90;;;;;;4964052;29;20019;-69
2021/05/01 00:44:03;;;;;;;5.47;2.85;;;7.70;89.10;;;;;;4954850;29;20020;-71
2021/05/01 00:46:29;;;;;;;5.78;2.70;;;7.80;89.00;;;;;;4945707;29;20012;-69
2021/05/01 00:48:55;;;;;;;8.90;4.13;;;7.80;88.90;;;;;;4929913;29;20039;-71
2021/05/01 00:51:21;;;;;;;10.60;4.07;;;7.80;88.90;;;;;;4946678;29;20011;-71
2021/05/01 00:53:46;;;;;;;8.27;3.67;;;7.80;89.20;;;;;;4931501;29;20015;-70
2021/05/01 00:56:12;;;;;;;8.05;3.83;;;7.80;89.60;;;;;;4951052;29;20027;-70
2021/05/01 00:58:38;;;;;;;10.27;3.95;;;7.70;89.60;;;;;;4954262;29;20035;-70
2021/05/01 01:03:32;;;;;;;6.57;3.70;;;7.70;89.40;;;;;;4964821;29;20363;-70
2021/05/01 01:05:58;;;;;;;7.22;3.40;;;7.80;89.10;;;;;;4964647;29;20011;-69
2021/05/01 01:08:23;;;;;;;7.85;3.40;;;7.70;88.90;;;;;;4954321;29;20027;-71
2021/05/01 01:10:49;;;;;;;8.68;3.63;;;7.80;89.10;;;;;;4948552;29;20007;-70
2021/05/01 01:13:15;;;;;;;7.95;3.67;;;7.80;89.00;;;;;;4964620;29;20018;-71
2021/05/01 01:15:41;;;;;;;5.95;3.20;;;7.80;89.00;;;;;;4964362;28;20023;-71
2021/05/01 01:18:07;;;;;;;7.60;3.83;;;7.80;88.70;;;;;;4946346;29;20039;-71
2021/05/01 01:20:32;;;;;;;7.65;3.85;;;7.80;88.80;;;;;;4961640;29;20011;-70
2021/05/01 01:22:58;;;;;;;8.00;3.92;;;7.80;88.90;;;;;;4974034;28;20123;-69
2021/05/01 01:25:24;;;;;;;11.43;4.63;;;7.80;89.10;;;;;;4965946;29;20011;-69
2021/05/01 01:27:49;;;;;;;6.10;3.20;;;7.80;89.50;;;;;;4948691;29;20011;-69
2021/05/01 01:30:17;;;;;;;6.95;3.80;;;7.80;89.40;;;;;;4964338;29;20038;-68
2021/05/01 01:32:42;;;;;;;5.93;3.05;;;7.80;89.40;;;;;;4948640;29;20023;-69
2021/05/01 01:35:09;;;;;;;8.70;3.58;;;7.80;89.00;;;;;;4948570;29;20083;-69
2021/05/01 01:37:35;;;;;;;6.68;3.55;;;7.90;88.90;;;;;;4964247;28;20034;-71
2021/05/01 01:40:00;;;;;;;9.38;4.07;;;7.80;88.50;;;;;;4964370;29;20209;-69
2021/05/01 01:42:26;;;;;;;6.10;3.10;;;7.80;88.40;;;;;;4964707;28;20082;-70
2021/05/01 01:44:52;;;;;;;5.68;2.70;;;7.80;88.50;;;;;;4963950;28;20070;-70
2021/05/01 01:47:17;;;;;;;7.95;3.10;;;7.90;87.90;;;;;;4948563;29;20015;-68
2021/05/01 01:49:43;;;;;;;5.53;2.70;;;7.90;87.30;;;;;;4963799;29;20019;-69
2021/05/01 01:52:08;;;;;;;6.55;3.17;;;7.90;87.30;;;;;;4946523;29;20076;-70
2021/05/01 01:54:34;;;;;;;7.13;3.10;;;7.90;87.50;;;;;;4944549;29;20012;-70
2021/05/01 01:57:00;;;;;;;7.68;3.58;;;7.90;87.90;;;;;;4941403;29;20028;-69
2021/05/01 01:59:27;;;;;;;5.82;2.72;;;7.90;88.40;;;;;;4957959;29;20111;-69
2021/05/01 02:01:52;;;;;;;9.30;3.50;;;7.80;88.50;;;;;;4945833;29;20042;-70
2021/05/01 02:04:18;;;;;;;7.82;3.90;;;7.80;88.50;;;;;;4969996;29;20007;-69
2021/05/01 02:06:44;;;;;;;9.18;3.17;;;7.80;88.70;;;;;;4969182;29;20015;-70
2021/05/01 02:09:09;;;;;;;8.35;3.53;;;7.80;87.60;;;;;;4970530;29;20012;-69
2021/05/01 02:11:35;;;;;;;5.07;2.85;;;7.80;87.60;;;;;;4940722;29;20027;-69
2021/05/01 02:14:01;;;;;;;5.97;2.78;;;7.80;87.70;;;;;;4961623;29;20112;-70
2021/05/01 02:16:26;;;;;;;4.68;2.10;;;7.80;88.00;;;;;;4961780;29;20043;-70
2021/05/01 02:18:52;;;;;;;6.13;2.13;;;7.80;88.10;;;;;;4953612;29;20336;-70
2021/05/01 02:21:18;;;;;;;4.03;2.00;;;7.80;88.40;;;;;;4965545;29;20027;-69
2021/05/01 02:23:43;;;;;;;4.95;2.08;;;7.90;88.70;;;;;;4950297;29;20050;-69
2021/05/01 02:26:09;;;;;;;4.95;1.90;;;7.90;88.60;;;;;;4948664;29;20015;-69
2021/05/01 02:28:34;;;;;;;5.22;2.33;;;7.90;88.90;;;;;;4952942;29;20055;-70
2021/05/01 02:31:00;;;;;;;8.70;3.35;;;7.80;89.40;;;;;;4985811;28;20034;-70
2021/05/01 02:33:27;;;;;;;8.60;4.20;;;7.70;89.90;;;;;;4971545;28;20026;-70
2021/05/01 02:35:53;;;;;;;10.88;4.68;;;7.70;90.00;;;;;;4953770;28;20015;-70
2021/05/01 02:38:19;;;;;;;7.32;4.05;;;7.50;89.50;;;;;;4958200;29;20264;-69
2021/05/01 02:40:44;;;;;;;7.22;3.75;;;7.50;89.50;;;;;;4947226;29;20128;-70
2021/05/01 02:43:10;;;;;;;10.10;4.22;;;7.40;89.60;;;;;;4947620;29;20042;-69
2021/05/01 02:45:36;;;;;;;6.90;3.72;;;7.40;89.80;;;;;;4931779;29;20063;-70
2021/05/01 02:48:03;;;;;;;11.73;5.95;;;7.40;90.00;;;;;;4931429;29;20306;-70
2021/05/01 02:50:28;;;;;;;12.23;6.32;;;7.30;90.30;;;;;;4949113;29;20364;-70
2021/05/01 02:52:54;;;;;;;8.68;4.72;;;7.20;90.40;;;;;;4966591;29;20015;-68
2021/05/01 02:55:20;;;;;;;10.65;5.78;;;7.20;90.50;;;;;;4966498;29;20015;-69
2021/05/01 02:57:45;;;;;;;12.52;6.25;;;7.20;90.50;;;;;;4965143;29;20042;-69
2021/05/01 03:00:16;;;;;;;8.95;5.28;;;7.10;90.40;;;;;;4955467;29;20019;-68
2021/05/01 03:02:42;;;;;;;8.20;4.53;;;7.10;90.60;;;;;;4947113;29;20337;-70
2021/05/01 03:05:08;;;;;;;8.73;4.30;;;7.10;90.70;;;;;;4966104;29;20019;-70
2021/05/01 03:07:34;;;;;;;7.72;4.65;;;7.20;90.70;;;;;;4966038;29;20042;-68
2021/05/01 03:10:00;;;;;;;9.52;5.10;;;7.20;90.70;;;;;;4965713;29;20011;-68
2021/05/01 03:12:26;;;;;;;6.10;4.20;;;7.20;90.70;;;;;;4981675;28;20018;-70
2021/05/01 03:14:51;;;;;;;10.38;5.03;;;7.20;90.70;;;;;;4974986;28;20023;-69
2021/05/01 03:17:17;;;;;;;10.23;4.70;;;7.20;90.80;;;;;;4966849;29;20015;-69
2021/05/01 03:19:43;;;;;;;9.32;5.13;;;7.20;90.90;;;;;;4962449;29;20075;-69
2021/05/01 03:22:08;;;;;;;9.02;4.15;;;7.30;90.90;;;;;;4943357;28;636456;-70
2021/05/01 03:24:34;;;;;;;5.20;3.22;;;7.30;91.00;;;;;;4966793;29;20023;-69
2021/05/01 03:27:00;;;;;;;5.35;2.92;;;7.40;90.90;;;;;;4952678;29;20022;-69
2021/05/01 03:29:26;;;;;;;5.82;3.05;;;7.50;90.80;;;;;;4966200;29;20012;-69
2021/05/01 03:31:51;;;;;;;6.03;3.00;;;7.50;90.80;;;;;;4964119;29;20043;-68
2021/05/01 03:34:17;;;;;;;7.72;4.10;;;7.50;90.80;;;;;;4949077;29;20023;-68
2021/05/01 03:36:42;;;;;;;8.60;3.90;;;7.50;90.90;;;;;;4958546;29;20015;-68
2021/05/01 03:39:08;;;;;;;6.25;2.88;;;7.50;91.00;;;;;;4952262;29;20057;-69
2021/05/01 03:41:34;;;;;;;5.70;2.97;;;7.60;91.00;;;;;;4947509;29;20058;-69
2021/05/01 03:43:59;;;;;;;5.20;3.00;;;7.60;90.90;;;;;;4947921;29;20035;-69
2021/05/01 03:46:25;;;;;;;6.80;3.30;;;7.70;90.80;;;;;;4947756;29;20015;-70
2021/05/01 03:48:51;;;;;;;6.55;3.17;;;7.70;90.80;;;;;;4947451;29;20011;-69
2021/05/01 03:51:16;;;;;;;5.65;3.05;;;7.70;90.70;;;;;;4953114;29;20054;-69
2021/05/01 03:53:42;;;;;;;8.07;3.55;;;7.70;90.60;;;;;;4965577;29;20027;-69
2021/05/01 03:56:07;;;;;;;6.97;3.22;;;7.70;90.70;;;;;;4965922;29;20019;-70
2021/05/01 03:58:33;;;;;;;5.18;3.17;;;7.80;90.70;;;;;;4965763;29;20120;-69
2021/05/01 04:00:59;;;;;;;8.10;3.92;;;7.80;90.40;;;;;;4958241;29;20020;-70
2021/05/01 04:03:24;;;;;;;5.90;3.70;;;7.70;90.40;;;;;;4946497;29;20020;-70
2021/05/01 04:05:50;;;;;;;6.43;3.50;;;7.60;90.50;;;;;;4946727;29;20012;-69
2021/05/01 04:08:16;;;;;;;7.13;3.70;;;7.70;90.60;;;;;;4961079;29;20047;-70
2021/05/01 04:10:41;;;;;;;5.32;2.90;;;7.70;90.40;;;;;;4931438;29;20011;-68
2021/05/01 04:13:07;;;;;;;6.82;3.58;;;7.80;90.30;;;;;;4947062;29;20030;-69
2021/05/01 04:15:32;;;;;;;6.38;3.25;;;7.80;90.10;;;;;;4965515;28;20340;-69
2021/05/01 04:17:58;;;;;;;4.05;2.55;;;7.70;90.20;;;;;;4958571;28;20035;-68
2021/05/01 04:20:24;;;;;;;7.03;4.38;;;7.80;90.20;;;;;;4963806;29;20023;-69
2021/05/01 04:22:49;;;;;;;7.40;4.45;;;7.70;90.10;;;;;;4969254;29;20252;-68
2021/05/01 04:25:15;;;;;;;7.30;4.05;;;7.60;90.20;;;;;;4950697;28;20016;-71
2021/05/01 04:27:41;;;;;;;11.27;5.03;;;7.70;90.30;;;;;;4947322;29;20012;-69
2021/05/01 04:30:07;;;;;;;8.65;4.45;;;7.70;90.10;;;;;;4947118;29;20392;-69
2021/05/01 04:32:33;;;;;;;9.02;4.60;;;7.70;90.10;;;;;;4947466;29;20058;-69
2021/05/01 04:34:58;;;;;;;7.75;4.10;;;7.80;90.10;;;;;;4954738;28;20011;-69
2021/05/01 04:37:24;;;;;;;7.85;5.13;;;7.80;90.00;;;;;;4946321;29;20012;-69
2021/05/01 04:39:50;;;;;;;12.82;4.85;;;7.60;90.00;;;;;;4956953;29;20025;-69
2021/05/01 04:42:15;;;;;;;9.02;3.97;;;7.70;90.50;;;;;;4964884;29;20027;-69
2021/05/01 04:44:41;;;;;;;6.72;3.97;;;7.80;90.20;;;;;;4961310;29;20015;-67
2021/05/01 04:47:07;;;;;;;8.52;4.55;;;7.90;89.80;;;;;;4946463;28;20074;-70
2021/05/01 04:49:32;;;;;;;9.43;4.60;;;7.90;89.20;;;;;;4959484;29;20012;-70
2021/05/01 04:51:59;;;;;;;10.60;6.68;;;7.90;88.90;;;;;;4945812;29;20019;-68
2021/05/01 04:54:25;;;;;;;9.73;5.10;;;7.80;88.40;;;;;;4948659;29;20030;-70
2021/05/01 04:56:50;;;;;;;8.05;4.78;;;7.80;89.20;;;;;;4965252;28;20011;-69
2021/05/01 04:59:16;;;;;;;8.80;4.72;;;7.90;88.90;;;;;;4965181;28;20016;-69
2021/05/01 05:01:41;;;;;;;8.23;3.83;;;8.00;88.90;;;;;;4951990;29;20063;-69
2021/05/01 05:04:07;;;;;;;6.88;4.47;;;8.10;88.80;;;;;;4951144;29;20030;-70
2021/05/01 05:06:32;;;;;;;9.20;4.75;;;8.20;88.40;;;;;;4946894;29;20015;-69
2021/05/01 05:09:00;;;;;;;6.07;3.70;;;8.20;88.50;;;;;;4947024;29;20039;-70
2021/05/01 05:11:26;;;;;;;9.73;5.07;;;8.20;87.90;;;;;;4952655;29;20014;-69
2021/05/01 05:13:51;;;;;;;9.10;5.55;;;8.20;87.90;;;;;;4962629;28;20020;-69
2021/05/01 05:16:17;;;;;;;7.30;4.82;;;8.10;87.80;;;;;;4960942;29;20262;-69
2021/05/01 05:18:42;;;;;;;6.72;4.40;;;8.10;88.00;;;;;;4963056;29;20018;-71
2021/05/01 05:21:08;;;;;;;7.18;4.38;;;8.20;88.50;;;;;;4946106;29;20191;-72
2021/05/01 05:23:34;;;;;;;8.82;5.00;;;8.40;87.60;;;;;;4945020;29;20054;-72
2021/05/01 05:25:59;;;;;;;7.47;4.00;;;8.40;87.30;;;;;;4980327;28;20022;-71
2021/05/01 05:28:25;;;;;;;8.10;4.43;;;8.40;87.60;;;;;;4964410;28;20054;-69
2021/05/01 05:30:50;;;;;;;7.85;4.60;;;8.40;87.40;;;;;;4948322;29;20015;-69
2021/05/01 05:33:16;;;;;;;9.07;4.85;;;8.40;87.80;;;;;;4965621;29;20042;-69
2021/05/01 05:35:42;;;;;;;8.32;4.50;;;8.40;87.40;;;;;;4955963;29;20486;-70
2021/05/01 05:38:07;;;;;;;8.98;4.88;;;8.40;87.60;;;;;;4931670;29;20012;-70
2021/05/01 05:40:34;;;;;;;5.43;3.47;;;8.40;87.90;;;;;;4931276;29;20011;-70
2021/05/01 05:43:00;;;;;;;7.47;3.60;;;8.40;87.70;;;;;;4960024;29;20191;-69
2021/05/01 05:45:29;;;;;;;5.47;3.03;;;8.40;88.20;;;;;;4945689;29;20059;-70
2021/05/01 05:47:54;;;;;;;6.63;3.78;;;8.50;87.70;;;;;;4946186;29;20014;-70
2021/05/01 05:50:20;;;;;;;12.05;5.90;;;8.60;87.50;;;;;;4943815;29;20011;-70
2021/05/01 05:52:46;;;;;;;8.00;5.10;;;8.50;87.00;;;;;;4964363;29;20074;-69
2021/05/01 05:55:12;;;;;;;10.43;5.45;;;8.40;87.80;;;;;;4980413;28;20019;-69
2021/05/01 05:57:38;;;;;;;8.18;4.50;;;8.50;87.70;;;;;;4953243;29;20039;-69
2021/05/01 06:00:05;;;;;;;8.98;5.25;;;8.50;87.60;;;;;;4944962;29;20015;-69
2021/05/01 06:02:31;;;;;;;11.93;5.78;;;8.50;87.30;;;;;;4947357;29;20042;-70
2021/05/01 06:04:59;;;;;;;8.23;4.60;;;8.60;87.30;;;;;;4952790;29;20012;-69
2021/05/01 06:07:34;;;;;;;9.88;4.82;;;8.80;87.30;;;;;;4952270;28;20217;-69
2021/05/01 06:10:03;;;;;;;10.73;4.88;;;8.90;86.50;;;;;;4950919;29;20012;-70
2021/05/01 06:12:29;;;;;;;7.35;4.13;;;9.10;86.60;;;;;;4944853;29;20325;-69
2021/05/01 06:14:55;;;;;;;8.73;4.30;;;9.20;86.70;;;;;;4947865;29;20058;-70
2021/05/01 06:17:21;;;;;;;8.77;4.57;;;9.10;86.90;;;;;;4948589;29;20099;-69
2021/05/01 06:19:47;;;;;;;8.05;4.45;;;9.10;87.90;;;;;;4964534;28;20015;-69
2021/05/01 06:22:13;;;;;;;11.15;4.30;;;9.30;86.90;;;;;;4948502;29;20058;-69
2021/05/01 06:24:41;;;;;;;9.55;4.10;;;9.80;85.40;;;;;;4947547;29;20028;-70
2021/05/01 06:27:07;;;;;;;6.97;3.97;;;10.20;84.10;;;;;;4964361;28;20340;-70
2021/05/01 06:29:35;;;;;;;8.98;4.63;;;10.50;81.60;;;;;;4957164;28;20019;-68
2021/05/01 06:32:01;;;;;;;7.32;3.13;;;10.70;80.30;;;;;;4946049;29;20011;-70
2021/05/01 06:34:27;;;;;;;7.82;3.25;;;10.60;80.50;;;;;;4949807;29;20062;-70
2021/05/01 06:36:52;;;;;;;6.30;3.42;;;10.40;80.50;;;;;;4963969;29;20046;-69
2021/05/01 06:39:18;;;;;;;8.73;4.25;;;10.40;81.20;;;;;;4964408;29;20023;-70
2021/05/01 06:41:57;;;;;;;6.93;3.28;;;10.80;80.00;;;;;;4961404;29;20026;-71
2021/05/01 06:44:37;;;;;;;6.03;2.85;;;11.20;78.50;;;;;;4953659;29;20027;-72
2021/05/01 06:47:02;;;;;;;5.03;3.05;;;11.80;75.40;;;;;;4962061;28;20047;-72
2021/05/01 06:49:30;;;;;;;7.97;4.38;;;11.60;74.60;;;;;;4949018;29;20313;-71
2021/05/01 06:51:56;;;;;;;6.20;3.78;;;11.70;74.00;;;;;;4959355;29;20324;-70
2021/05/01 06:54:22;;;;;;;4.78;2.60;;;11.80;74.20;;;;;;4966605;28;20023;-71
2021/05/01 06:56:47;;;;;;;6.88;3.88;;;12.40;72.20;;;;;;4935059;29;20009;-70
2021/05/01 06:59:13;;;;;;;6.60;4.10;;;12.60;70.30;;;;;;4980048;28;20212;-70
2021/05/01 07:01:39;;;;;;;6.85;4.22;;;12.60;70.10;;;;;;4951151;29;20011;-70
2021/05/01 07:04:07;;;;;;;10.20;4.53;;;12.20;71.00;;;;;;4958833;29;20119;-70
2021/05/01 07:06:32;;;;;;;6.30;3.75;;;12.00;71.60;;;;;;4947920;29;20012;-70
2021/05/01 07:08:59;;;;;;;9.25;5.03;;;12.00;72.80;;;;;;4947947;29;20107;-70
2021/05/01 07:11:25;;;;;;;9.23;5.63;;;11.90;72.50;;;;;;4947986;29;20018;-72
2021/05/01 07:13:51;;;;;;;8.52;5.07;;;11.90;72.20;;;;;;4950014;29;20083;-72
2021/05/01 07:16:16;;;;;;;10.80;4.65;;;12.10;71.90;;;;;;4956355;28;20094;-72
2021/05/01 07:18:43;;;;;;;7.88;3.78;;;12.20;71.20;;;;;;4949996;29;20023;-72
2021/05/01 07:21:08;;;;;;;8.55;4.60;;;12.40;70.80;;;;;;4966608;28;20019;-70
2021/05/01 07:23:34;;;;;;;9.15;4.50;;;12.30;70.90;;;;;;4965558;28;20039;-70
2021/05/01 07:26:01;;;;;;;6.43;4.00;;;12.60;70.20;;;;;;4965873;28;20023;-69
2021/05/01 07:28:27;;;;;;;7.25;4.03;;;12.90;69.60;;;;;;4964287;28;20066;-72
2021/05/01 07:30:54;;;;;;;5.97;3.70;;;13.10;69.00;;;;;;4965979;29;20050;-72
2021/05/01 07:33:35;;;;;;;8.13;4.63;;;13.30;67.90;;;;;;4956228;29;20015;-71
2021/05/01 07:36:08;;;;;;;9.35;4.15;;;13.10;67.90;;;;;;4930581;29;20020;-71
2021/05/01 07:38:33;;;;;;;8.98;4.43;;;12.50;70.40;;;;;;4947985;29;20011;-70
2021/05/01 07:41:00;;;;;;;9.07;4.10;;;13.00;68.90;;;;;;4960990;29;20040;-72
2021/05/01 07:43:26;;;;;;;7.95;4.55;;;13.30;66.70;;;;;;4938351;29;20058;-70
2021/05/01 07:45:52;;;;;;;7.32;4.63;;;13.30;66.10;;;;;;4966196;29;20003;-70
2021/05/01 07:48:18;;;;;;;9.45;4.25;;;13.60;65.00;;;;;;4951159;29;20070;-70
2021/05/01 07:50:44;;;;;;;8.02;4.40;;;14.00;64.00;;;;;;4966449;29;20007;-69
2021/05/01 07:53:10;;;;;;;7.28;4.50;;;14.20;62.00;;;;;;4948014;29;20023;-70
2021/05/01 07:55:37;;;;;;;6.88;3.47;;;14.20;61.20;;;;;;4947075;29;20027;-70
2021/05/01 07:58:03;;;;;;;6.57;3.22;;;14.30;61.10;;;;;;4946957;29;20073;-70
2021/05/01 08:00:28;;;;;;;7.40;4.50;;;14.60;60.60;;;;;;4955981;29;20019;-70
2021/05/01 08:02:54;;;;;;;5.85;2.90;;;14.50;60.80;;;;;;4964257;29;20027;-69
2021/05/01 08:05:20;;;;;;;5.97;3.00;;;15.10;61.00;;;;;;4934533;29;20007;-70
2021/05/01 08:07:48;;;;;;;6.05;3.15;;;15.60;57.90;;;;;;4963513;29;20034;-70
2021/05/01 08:10:13;;;;;;;3.72;2.30;;;15.60;57.40;;;;;;4947981;29;20020;-71
2021/05/01 08:12:39;;;;;;;6.90;3.63;;;16.00;56.30;;;;;;4951385;29;20187;-70
2021/05/01 08:15:05;;;;;;;5.90;2.88;;;15.50;56.60;;;;;;4962026;29;20023;-70
2021/05/01 08:17:31;;;;;;;5.25;3.00;;;15.10;56.30;;;;;;4948269;29;20027;-70
2021/05/01 08:19:57;;;;;;;5.03;2.60;;;14.80;56.70;;;;;;4935075;29;20012;-71
2021/05/01 08:22:22;;;;;;;9.27;3.28;;;14.70;57.90;;;;;;4957625;29;20082;-70
2021/05/01 08:24:48;;;;;;;4.25;2.47;;;14.40;58.30;;;;;;4959791;29;20053;-71
2021/05/01 08:27:14;;;;;;;4.82;2.58;;;14.00;58.40;;;;;;4966328;29;20015;-71
2021/05/01 08:29:39;;;;;;;6.55;3.03;;;14.00;59.00;;;;;;4947788;29;20020;-71
2021/05/01 08:32:05;;;;;;;3.85;2.30;;;14.00;58.60;;;;;;4947557;29;20083;-70
2021/05/01 08:34:30;;;;;;;4.78;2.63;;;14.10;59.30;;;;;;4947789;29;20020;-70
2021/05/01 08:36:56;;;;;;;7.32;3.00;;;13.90;58.50;;;;;;4947119;29;20023;-70
2021/05/01 08:39:22;;;;;;;6.60;3.70;;;13.50;58.80;;;;;;4946953;29;20016;-70
2021/05/01 08:41:47;;;;;;;5.57;3.20;;;13.30;59.50;;;;;;4946090;29;20015;-70
2021/05/01 08:44:13;;;;;;;6.50;3.30;;;13.30;59.80;;;;;;4952792;29;20262;-68
2021/05/01 08:46:39;;;;;;;4.97;3.08;;;13.30;58.50;;;;;;4955401;29;20026;-70
2021/05/01 08:49:05;;;;;;;4.72;2.60;;;13.40;58.80;;;;;;4964663;29;20019;-70
2021/05/01 08:51:30;;;;;;;6.07;2.70;;;13.60;58.40;;;;;;4964639;29;20018;-70
2021/05/01 08:53:56;;;;;;;3.95;2.20;;;13.70;57.70;;;;;;4963833;29;20074;-69
2021/05/01 08:56:22;;;;;;;3.70;2.15;;;14.00;56.60;;;;;;4964368;29;20433;-69
2021/05/01 08:58:48;;;;;;;5.03;3.40;;;14.30;56.00;;;;;;4954721;29;20059;-69
2021/05/01 09:01:14;;;;;;;4.38;2.58;;;14.70;54.60;;;;;;4945531;29;20039;-71
2021/05/01 09:03:40;;;;;;;4.82;2.30;;;15.00;53.90;;;;;;4946069;29;20309;-71
2021/05/01 09:06:08;;;;;;;4.43;2.05;;;14.90;52.90;;;;;;4951260;29;20011;-71
2021/05/01 09:08:37;;;;;;;3.65;2.47;;;14.70;52.90;;;;;;4957903;29;20007;-71
2021/05/01 09:11:04;;;;;;;4.72;2.22;;;14.60;52.70;;;;;;4944784;29;20072;-71
2021/05/01 09:13:29;;;;;;;3.45;2.03;;;14.40;52.50;;;;;;4957499;29;20046;-71
2021/05/01 09:16:07;;;;;;;4.63;2.20;;;14.50;52.60;;;;;;4960793;28;20023;-70
2021/05/01 09:18:48;;;;;;;2.70;1.80;;;14.50;52.60;;;;;;4948064;29;20019;-72
2021/05/01 09:21:18;;;;;;;3.07;1.80;;;14.60;51.80;;;;;;4945082;29;20011;-71
2021/05/01 09:23:44;;;;;;;3.95;2.03;;;14.90;50.10;;;;;;4946054;29;20241;-70
2021/05/01 09:26:10;;;;;;;3.17;1.83;;;14.70;50.00;;;;;;4963425;29;20015;-71
2021/05/01 09:28:48;;;;;;;5.63;1.95;;;14.40;49.70;;;;;;4962075;29;20309;-71
2021/05/01 09:31:15;;;;;;;3.80;1.60;;;14.70;48.10;;;;;;4965325;28;20015;-70
2021/05/01 09:33:53;;;;;;;3.95;1.38;;;14.40;47.00;;;;;;4964188;28;20033;-70
2021/05/01 09:36:23;;;;;;;2.50;1.30;;;14.40;47.40;;;;;;4945493;29;20043;-70
2021/05/01 09:38:49;;;;;;;1.85;1.10;;;14.60;45.90;;;;;;4963370;28;20015;-72
2021/05/01 09:41:20;;;;;;;3.72;1.50;;;14.40;43.20;;;;;;4944854;29;20067;-72
2021/05/01 09:44:08;;;;;;;2.83;1.20;;;14.60;44.00;;;;;;4945030;29;20320;-72
2021/05/01 09:46:43;;;;;;;1.45;1.10;;;14.50;44.10;;;;;;4955485;29;20054;-70
2021/05/01 09:49:19;;;;;;;2.20;1.20;;;14.40;44.20;;;;;;4964727;28;20331;-72
2021/05/01 09:52:12;;;;;;;2.88;1.30;;;14.60;42.00;;;;;;4948012;29;20106;-70
2021/05/01 09:54:39;;;;;;;3.60;1.63;;;14.70;41.90;;;;;;4956431;29;20027;-72
2021/05/01 09:57:09;;;;;;;2.58;1.40;;;14.80;40.10;;;;;;4964055;28;20087;-71
2021/05/01 09:59:41;;;;;;;1.98;1.02;;;14.90;40.00;;;;;;4954613;29;20019;-69
2021/05/01 10:02:08;;;;;;;2.28;1.00;;;15.00;39.20;;;;;;4944939;29;20012;-72
2021/05/01 10:04:33;;;;;;;1.98;1.13;;;14.90;39.00;;;;;;4937988;29;20054;-71
2021/05/01 10:07:01;;;;;;;2.50;1.10;;;14.70;39.60;;;;;;4953705;29;20012;-71
2021/05/01 10:09:28;;;;;;;2.10;1.00;;;15.70;39.60;;;;;;4954648;29;20313;-71
2021/05/01 10:12:02;;;;;;;1.35;0.80;;;15.70;37.30;;;;;;4964196;29;20266;-71
2021/05/01 10:15:00;;;;;;;1.13;0.70;;;15.70;37.10;;;;;;4963720;29;20010;-71
2021/05/01 10:17:28;;;;;;;2.03;0.85;;;15.80;35.70;;;;;;4887111;29;20077;-71
2021/05/01 10:20:03;;;;;;;5.35;1.90;;;15.90;35.50;;;;;;4875677;29;20432;-71
2021/05/01 10:22:34;;;;;;;3.17;1.50;;;16.30;35.50;;;;;;4869453;29;20106;-71
2021/05/01 10:25:01;;;;;;;;;;;16.30;35.70;;;;;;4881958;29;20029;-71
2021/05/01 10:27:27;;;;;;;4.68;1.73;;;15.90;36.90;;;;;;4890650;29;19938;-71
2021/05/01 10:30:09;;;;;;;2.55;1.50;;;15.70;38.00;;;;;;4887421;29;20017;-71
2021/05/01 10:32:47;;;;;;;2.22;1.30;;;15.70;38.80;;;;;;4877559;29;20025;-71
2021/05/01 10:35:12;;;;;;;2.15;1.40;;;15.70;39.30;;;;;;4878745;29;20054;-71
2021/05/01 10:37:43;;;;;;;1.88;1.08;;;15.70;39.90;;;;;;4872542;29;20047;-71
2021/05/01 10:40:10;;;;;;;2.17;1.45;;;15.60;41.00;;;;;;4877072;29;20057;-70
2021/05/01 10:42:35;;;;;;;2.40;1.55;;;15.80;41.80;;;;;;4873877;29;20044;-71
2021/05/01 10:45:01;;;;;;;1.70;1.25;;;15.60;43.20;;;;;;4873795;29;20013;-71
2021/05/01 10:47:27;;;;;;;2.65;1.65;;;15.70;44.10;;;;;;4892496;29;20094;-70
2021/05/01 10:49:55;;;;;;;3.58;1.80;;;16.00;44.30;;;;;;4883613;29;20041;-70
2021/05/01 10:52:21;;;;;;;2.67;1.42;;;15.70;45.20;;;;;;4895119;28;20027;-71
2021/05/01 10:55:01;;;;;;;2.75;1.58;;;15.70;46.20;;;;;;4972487;28;20011;-70
2021/05/01 10:57:27;;;;;;;3.03;1.70;;;15.80;45.80;;;;;;4967465;29;20194;-71
2021/05/01 11:00:19;;;;;;;2.80;1.70;;;15.90;45.70;;;;;;4967993;29;20018;-70
2021/05/01 11:02:47;;;;;;;9.32;3.17;;;15.60;46.00;;;;;;4969475;28;20043;-72
2021/05/01 11:05:13;;;;;;;6.72;3.08;;;14.90;46.90;;;;;;4970051;28;20026;-71
2021/05/01 11:07:59;;;;;;;5.35;2.20;;;14.60;47.50;;;;;;4972158;29;20049;-71
2021/05/01 11:10:25;;;;;;;3.25;1.85;;;14.40;47.30;;;;;;4966896;29;20011;-70
2021/05/01 11:12:52;;;;;;;4.20;2.17;;;14.10;48.10;;;;;;4935133;29;20046;-71
2021/05/01 11:15:22;;;;;;;5.00;2.30;;;14.20;48.60;;;;;;4950794;29;20158;-70
2021/05/01 11:18:04;;;;;;;3.75;1.85;;;14.10;48.50;;;;;;4967096;29;20019;-71
2021/05/01 11:20:30;;;;;;;3.05;1.80;;;14.00;49.30;;;;;;4952788;29;20213;-70
2021/05/01 11:22:55;;;;;;;2.85;2.10;;;14.00;49.60;;;;;;4966336;29;20127;-70
2021/05/01 11:25:22;;;;;;;4.20;2.20;;;14.10;49.30;;;;;;4954854;29;20027;-70
2021/05/01 11:27:49;;;;;;;4.13;1.70;;;14.00;49.80;;;;;;4966519;29;20019;-69
2021/05/01 11:30:19;;;;;;;4.00;1.88;;;14.10;48.90;;;;;;4966457;29;20035;-69
2021/05/01 11:32:46;;;;;;;2.27;1.73;;;14.00;48.10;;;;;;4939523;29;20035;-69
2021/05/01 11:35:13;;;;;;;3.10;1.90;;;13.80;48.60;;;;;;4957252;29;20066;-70
2021/05/01 11:37:51;;;;;;;4.15;2.25;;;13.60;49.00;;;;;;4968562;29;20065;-69
2021/05/01 11:40:19;;;;;;;4.30;2.10;;;13.30;49.90;;;;;;4964715;29;20026;-71
2021/05/01 11:42:47;;;;;;;2.75;1.70;;;13.50;50.00;;;;;;4950054;29;20019;-70
2021/05/01 11:45:17;;;;;;;6.13;2.10;;;13.60;49.30;;;;;;4949735;29;20019;-72
2021/05/01 11:47:51;;;;;;;4.53;2.00;;;13.60;48.50;;;;;;4966247;29;20027;-69
2021/05/01 11:50:16;;;;;;;3.83;1.70;;;13.50;48.90;;;;;;4958454;29;20034;-70
2021/05/01 11:53:21;;;;;;;7.75;4.30;;;13.50;48.90;;;;;;4966784;29;20058;-71
2021/05/01 11:55:57;;;;;;;4.68;2.17;;;13.70;48.40;;;;;;4953351;28;20376;-70
2021/05/01 11:58:35;;;;;;;5.25;1.80;;;13.60;49.00;;;;;;4965929;29;20027;-70
2021/05/01 12:01:19;;;;;;;11.60;3.58;;;13.60;48.90;;;;;;4949694;29;20019;-70
2021/05/01 12:04:11;;;;;;;4.55;1.85;;;13.50;48.90;;;;;;4948045;29;20027;-69
2021/05/01 12:06:38;;;;;;;;;;;13.60;48.00;;;;;;4948473;29;20404;-70
2021/05/01 12:09:07;;;;;;;3.00;1.40;;;13.60;47.80;;;;;;4979955;28;19946;-70
2021/05/01 12:11:34;;;;;;;5.82;2.20;;;13.70;47.80;;;;;;4948214;29;20381;-69
2021/05/01 12:14:00;;;;;;;5.20;1.90;;;13.80;48.20;;;;;;4922791;29;20019;-70
2021/05/01 12:16:26;;;;;;;4.20;1.77;;;13.70;47.70;;;;;;4966877;29;20027;-70
2021/05/01 12:18:53;;;;;;;3.97;1.60;;;13.60;47.50;;;;;;4968078;29;20069;-69
2021/05/01 12:21:23;;;;;;;2.20;1.40;;;13.60;47.70;;;;;;4967716;29;20123;-70
2021/05/01 12:23:52;;;;;;;2.80;1.58;;;13.60;47.90;;;;;;4965462;29;20061;-71
2021/05/01 12:26:36;;;;;;;5.10;1.70;;;13.70;47.40;;;;;;4946972;29;20019;-70
2021/05/01 12:29:23;;;;;;;3.35;1.55;;;13.50;47.10;;;;;;4948213;29;20034;-70
2021/05/01 12:32:01;;;;;;;2.13;1.20;;;13.60;46.90;;;;;;4956704;28;20015;-70
2021/05/01 12:34:45;;;;;;;7.18;2.53;;;13.60;46.20;;;;;;4958720;28;20122;-70
2021/05/01 12:37:11;;;;;;;4.25;1.80;;;13.60;45.70;;;;;;4947346;29;20020;-70
2021/05/01 12:39:37;;;;;;;4.22;1.23;;;13.50;46.30;;;;;;4951419;29;20015;-70
2021/05/01 12:42:17;;;;;;;1.52;0.95;;;13.80;45.60;;;;;;4933075;29;20329;-71
2021/05/01 12:44:46;;;;;;;1.85;1.20;;;13.90;45.30;;;;;;4965280;28;20078;-68
2021/05/01 12:47:11;;;;;;;7.25;2.45;;;13.70;43.80;;;;;;4964562;29;20011;-70
2021/05/01 12:49:39;;;;;;;4.93;2.03;;;13.60;44.80;;;;;;4956193;29;20216;-70
2021/05/01 12:52:09;;;;;;;6.20;2.15;;;13.50;44.20;;;;;;4945835;29;20079;-70
2021/05/01 12:54:44;;;;;;;5.30;2.22;;;13.60;45.30;;;;;;4946710;29;20055;-69
2021/05/01 12:57:14;;;;;;;7.18;2.67;;;13.60;46.10;;;;;;4958611;29;20022;-70